Time;durP1;ratioP1;P1;durP2;ratioP2;P2;SDS_P1;SDS_P2;PMS_P1;PMS_P2;Temp;Humidity;BMP_temperature;BMP_pressure;BME280_temperature;BME280_humidity;BME280_pressure;Samples;Min_cycle;Max_cycle;Signal;HPM_P1;HPM_P2
2022/06/06 00:00:16;;;;;;;21.60;9.23;;;18.60;99.90;;;18.90;94.28;100850.19;5210058;28;20053;-83
2022/06/06 00:02:49;;;;;;;19.83;7.85;;;18.60;99.90;;;18.88;94.00;100854.63;5209759;28;20054;-83
2022/06/06 00:05:21;;;;;;;22.77;9.95;;;18.60;99.90;;;18.84;94.05;100853.72;5209090;28;20080;-83
2022/06/06 00:07:53;;;;;;;25.75;10.35;;;18.60;99.90;;;18.80;93.99;100851.09;5209034;28;20052;-83
2022/06/06 00:10:26;;;;;;;21.50;9.30;;;18.50;99.90;;;18.75;93.96;100848.44;5209415;28;20126;-84
2022/06/06 00:12:58;;;;;;;24.45;10.82;;;18.50;99.90;;;18.77;94.14;100845.78;5208711;28;20073;-85
2022/06/06 00:15:31;;;;;;;20.25;8.50;;;18.50;99.90;;;18.79;94.31;100851.97;5208302;28;20053;-84
2022/06/06 00:18:04;;;;;;;21.48;8.35;;;18.50;99.90;;;18.80;94.23;100851.09;5208324;28;20047;-84
2022/06/06 00:20:36;;;;;;;17.52;8.27;;;18.50;99.90;;;18.80;93.94;100848.44;5209499;28;20053;-85
2022/06/06 00:23:08;;;;;;;19.08;7.97;;;18.50;99.90;;;18.82;94.39;100846.69;5210131;28;20050;-85
2022/06/06 00:25:40;;;;;;;18.27;8.35;;;18.50;99.90;;;18.84;94.56;100844.91;5210253;28;20073;-84
2022/06/06 00:28:12;;;;;;;22.20;9.07;;;18.50;99.90;;;18.83;94.19;100843.16;5210358;28;20057;-84
2022/06/06 00:30:45;;;;;;;17.35;7.97;;;18.50;99.90;;;18.84;94.67;100842.28;5211229;28;20049;-83
2022/06/06 00:36:07;;;;;;;19.13;7.68;;;18.60;99.90;;;18.85;95.12;100842.28;5210471;28;20138;-84
2022/06/06 00:38:39;;;;;;;15.75;7.20;;;18.50;99.90;;;18.84;95.07;100836.97;5209926;28;20049;-84
2022/06/06 00:41:11;;;;;;;14.98;7.18;;;18.50;99.90;;;18.86;95.50;100835.25;5210658;28;20052;-84
2022/06/06 00:43:43;;;;;;;16.48;7.22;;;18.50;99.90;;;18.85;95.43;100833.50;5209860;28;20045;-85
2022/06/06 00:46:16;;;;;;;16.40;7.72;;;18.50;99.90;;;18.85;95.62;100838.78;5210226;28;20419;-84
2022/06/06 00:48:48;;;;;;;17.63;7.22;;;18.50;99.90;;;18.86;95.66;100837.88;5210679;28;20056;-84
2022/06/06 00:51:20;;;;;;;16.23;7.15;;;18.50;99.90;;;18.85;95.97;100844.06;5211285;28;20049;-85
2022/06/06 00:53:55;;;;;;;17.27;7.65;;;18.50;99.90;;;18.83;95.95;100843.16;5209510;28;20049;-84
2022/06/06 00:56:33;;;;;;;20.90;8.27;;;18.50;99.90;;;18.79;95.84;100829.06;5209537;28;20051;-84
2022/06/06 00:59:12;;;;;;;18.10;8.05;;;18.50;99.90;;;18.76;95.84;100830.81;5209147;28;20132;-84
2022/06/06 01:01:45;;;;;;;19.20;8.10;;;18.40;99.90;;;18.70;95.85;100845.75;5209376;28;20054;-84
2022/06/06 01:04:19;;;;;;;15.80;7.40;;;18.40;99.90;;;18.68;96.11;100850.16;5210727;28;20061;-85
2022/06/06 01:06:52;;;;;;;19.13;8.95;;;18.40;99.90;;;18.65;96.10;100852.78;5210204;28;20053;-84
2022/06/06 01:09:27;;;;;;;16.60;8.05;;;18.30;99.90;;;18.61;95.78;100851.00;5209904;28;20052;-84
2022/06/06 01:12:04;;;;;;;16.77;7.57;;;18.30;99.90;;;18.55;95.60;100843.06;5210601;28;20056;-83
2022/06/06 01:14:40;;;;;;;20.77;8.65;;;18.20;99.90;;;18.52;95.37;100850.97;5209792;28;20053;-83
2022/06/06 01:17:28;;;;;;;22.13;9.25;;;18.20;99.90;;;18.48;95.07;100850.97;5210531;28;20072;-84
2022/06/06 01:20:17;;;;;;;16.13;7.40;;;18.20;99.90;;;18.44;94.72;100847.41;5209541;28;20103;-84
2022/06/06 01:23:35;;;;;;;17.23;8.40;;;18.10;99.90;;;18.39;93.67;100852.69;5210062;28;20419;-83
2022/06/06 01:26:44;;;;;;;14.98;6.28;;;18.10;99.90;;;18.34;92.82;100843.00;5209178;28;20056;-83
2022/06/06 01:29:22;;;;;;;15.00;6.30;;;18.00;99.90;;;18.33;92.05;100850.03;5209712;28;20049;-84
2022/06/06 01:32:01;;;;;;;14.13;6.30;;;18.00;99.90;;;18.31;91.31;100840.31;5210194;28;20052;-84
2022/06/06 01:34:37;;;;;;;13.88;5.63;;;18.00;99.90;;;18.31;90.97;100842.97;5209759;28;20061;-83
2022/06/06 01:37:30;;;;;;;10.43;5.18;;;18.00;99.90;;;18.31;90.82;100850.88;5210541;28;20053;-84
2022/06/06 01:40:07;;;;;;;10.38;4.53;;;18.00;99.90;;;18.31;90.80;100846.47;5210939;28;20740;-83
2022/06/06 01:42:49;;;;;;;10.07;4.38;;;18.00;99.90;;;18.32;90.54;100844.72;5210749;28;20520;-83
2022/06/06 01:45:29;;;;;;;9.50;4.82;;;18.00;99.90;;;18.32;89.97;100857.91;5211313;28;20076;-85
2022/06/06 01:48:06;;;;;;;8.68;4.38;;;18.00;99.90;;;18.30;89.77;100855.28;5210529;28;20050;-82
2022/06/06 01:50:40;;;;;;;7.00;3.28;;;18.00;99.90;;;18.31;89.28;100850.88;5209279;28;20048;-84
2022/06/06 01:53:16;;;;;;;8.27;3.83;;;18.00;99.90;;;18.29;89.03;100853.53;5209138;28;20056;-84
2022/06/06 01:55:51;;;;;;;6.65;3.83;;;18.00;99.90;;;18.28;88.72;100853.53;5210871;28;20045;-83
2022/06/06 01:58:28;;;;;;;6.55;3.58;;;18.00;99.90;;;18.27;88.69;100850.00;5210730;28;20140;-82
2022/06/06 02:01:02;;;;;;;7.05;3.40;;;18.00;99.90;;;18.28;88.90;100856.16;5210559;28;20130;-83
2022/06/06 02:03:35;;;;;;;7.55;3.30;;;18.00;99.90;;;18.29;88.78;100850.00;5210579;28;20513;-84
2022/06/06 02:06:08;;;;;;;7.43;3.53;;;18.00;99.90;;;18.30;88.79;100841.22;5209695;28;20049;-84
2022/06/06 02:08:40;;;;;;;5.38;3.00;;;18.00;99.90;;;18.31;88.96;100843.84;5210777;28;20104;-83
2022/06/06 02:11:13;;;;;;;7.53;4.00;;;18.00;99.90;;;18.31;88.68;100835.06;5213367;28;20046;-83
2022/06/06 02:13:46;;;;;;;8.73;4.13;;;18.00;99.90;;;18.32;88.64;100847.38;5209743;28;20141;-83
2022/06/06 02:16:19;;;;;;;13.00;4.85;;;18.00;99.90;;;18.29;88.79;100836.81;5210014;28;20045;-83
2022/06/06 02:18:51;;;;;;;12.55;5.55;;;18.00;99.90;;;18.26;88.99;100842.09;5209386;28;20052;-83
2022/06/06 02:21:23;;;;;;;8.90;4.18;;;18.00;99.90;;;18.25;89.37;100845.56;5209903;28;20056;-83
2022/06/06 02:23:55;;;;;;;9.45;3.92;;;18.00;99.90;;;18.26;89.53;100848.25;5209582;28;20136;-83
2022/06/06 02:26:27;;;;;;;9.05;4.35;;;18.00;99.90;;;18.27;89.82;100854.41;5209965;28;20427;-83
2022/06/06 02:29:00;;;;;;;11.85;4.78;;;18.00;99.90;;;18.29;89.81;100844.72;5210292;28;20046;-83
2022/06/06 02:31:37;;;;;;;11.65;4.43;;;18.00;99.90;;;18.29;89.81;100847.38;5212906;28;20053;-83
2022/06/06 02:34:10;;;;;;;10.45;5.05;;;18.00;99.90;;;18.27;89.94;100846.50;5212566;28;20466;-83
2022/06/06 02:36:42;;;;;;;9.10;4.90;;;18.00;99.90;;;18.25;90.11;100845.56;5212987;28;20053;-83
2022/06/06 02:39:14;;;;;;;9.98;4.25;;;18.00;99.90;;;18.22;89.82;100835.03;5212405;28;20056;-84
2022/06/06 02:41:46;;;;;;;8.38;3.95;;;17.90;99.90;;;18.21;90.17;100838.53;5213333;28;20064;-84
2022/06/06 02:44:19;;;;;;;8.57;4.00;;;17.90;99.90;;;18.21;90.40;100825.34;5213667;28;20045;-83
2022/06/06 02:46:52;;;;;;;7.75;4.20;;;17.90;99.90;;;18.17;90.42;100833.25;5213591;28;20052;-83
2022/06/06 02:49:24;;;;;;;7.32;3.70;;;17.90;99.90;;;18.14;89.71;100832.34;5213711;28;20046;-83
2022/06/06 02:51:56;;;;;;;8.60;4.10;;;17.90;99.90;;;18.09;89.69;100820.91;5213660;28;20500;-83
2022/06/06 02:54:29;;;;;;;9.57;3.55;;;17.80;99.90;;;18.05;89.58;100821.75;5212334;28;20057;-83
2022/06/06 02:57:03;;;;;;;8.65;3.08;;;17.80;99.90;;;18.03;89.19;100824.38;5211934;28;20076;-83
2022/06/06 02:59:37;;;;;;;6.88;3.45;;;17.80;99.90;;;18.00;89.28;100824.38;5211672;28;20488;-83
2022/06/06 03:02:11;;;;;;;8.85;3.42;;;17.70;99.90;;;17.96;89.59;100827.00;5211605;28;20045;-83
2022/06/06 03:04:43;;;;;;;7.75;3.53;;;17.70;99.90;;;17.90;90.04;100839.25;5211693;28;20050;-83
2022/06/06 03:07:27;;;;;;;6.43;3.08;;;17.60;99.90;;;17.85;90.27;100835.72;5212977;28;20056;-83
2022/06/06 03:10:19;;;;;;;5.45;3.33;;;17.60;99.90;;;17.83;90.60;100836.59;5212317;28;20427;-83
2022/06/06 03:13:07;;;;;;;5.93;3.00;;;17.60;99.90;;;17.79;90.51;100846.22;5212781;28;20059;-85
2022/06/06 03:20:46;;;;;;;;;;;17.50;99.90;;;17.77;90.37;100840.06;5214347;28;20124;-83
2022/06/06 03:21:52;;;;;;;7.75;3.28;;;17.50;99.90;;;17.72;90.56;100851.44;5212241;28;20079;-84
2022/06/06 03:24:35;;;;;;;5.72;2.63;;;17.50;99.90;;;17.72;90.62;100856.72;5212665;28;20069;-84
2022/06/06 03:27:20;;;;;;;6.05;2.80;;;17.40;99.90;;;17.73;90.32;100855.84;5212380;28;20419;-84
2022/06/06 03:30:03;;;;;;;3.90;2.13;;;17.40;99.90;;;17.75;90.06;100854.13;5211554;28;20048;-83
2022/06/06 03:32:52;;;;;;;7.18;2.65;;;17.50;99.90;;;17.75;89.16;100848.84;5212076;28;20045;-83
2022/06/06 03:35:41;;;;;;;6.18;2.50;;;17.50;99.90;;;17.75;88.87;100862.91;5211987;28;20115;-83
2022/06/06 03:38:20;;;;;;;4.25;2.22;;;17.50;99.90;;;17.74;88.44;100860.28;5211786;28;20412;-83
2022/06/06 03:41:03;;;;;;;4.85;2.38;;;17.50;99.90;;;17.75;88.39;100859.41;5211042;28;20048;-84
2022/06/06 03:43:46;;;;;;;7.05;2.45;;;17.40;99.90;;;17.74;88.09;100861.16;5211740;28;20049;-84
2022/06/06 03:46:29;;;;;;;3.08;1.75;;;17.40;99.90;;;17.74;88.13;100862.91;5211433;28;20056;-84
2022/06/06 03:49:16;;;;;;;4.95;2.47;;;17.40;99.90;;;17.72;88.06;100867.28;5211236;28;20041;-85
2022/06/06 03:52:09;;;;;;;3.97;2.03;;;17.50;99.90;;;17.72;87.76;100868.16;5212135;28;20075;-83
2022/06/06 03:54:53;;;;;;;4.97;2.40;;;17.40;99.90;;;17.73;87.49;100874.31;5212207;28;20132;-83
2022/06/06 03:57:27;;;;;;;4.07;2.13;;;17.40;99.90;;;17.71;87.45;100873.38;5211618;28;20045;-82
2022/06/06 04:00:06;;;;;;;3.35;2.10;;;17.40;99.90;;;17.69;87.21;100870.75;5211303;28;20495;-83
2022/06/06 04:02:41;;;;;;;5.60;2.53;;;17.40;99.90;;;17.68;87.13;100879.53;5211810;28;20077;-83
2022/06/06 04:05:18;;;;;;;4.13;2.03;;;17.40;99.90;;;17.67;87.35;100882.13;5210972;28;20053;-84
2022/06/06 04:07:52;;;;;;;5.43;2.45;;;17.40;99.90;;;17.69;87.26;100883.03;5210968;28;20073;-84
2022/06/06 04:10:32;;;;;;;3.35;1.83;;;17.40;99.90;;;17.69;86.79;100890.94;5210740;28;20132;-82
2022/06/06 04:13:25;;;;;;;5.00;2.05;;;17.40;99.90;;;17.69;86.56;100888.31;5210927;28;20049;-83
2022/06/06 04:16:09;;;;;;;5.95;2.13;;;17.40;99.90;;;17.70;86.13;100876.91;5211175;28;20140;-83
2022/06/06 04:19:08;;;;;;;3.47;1.80;;;17.40;99.90;;;17.72;86.13;100875.19;5211302;28;20058;-83
2022/06/06 04:21:51;;;;;;;2.80;1.70;;;17.40;99.90;;;17.76;85.79;100887.53;5211984;28;20419;-83
2022/06/06 04:24:53;;;;;;;3.13;1.83;;;17.50;99.90;;;17.85;85.60;100882.28;5211434;28;20055;-84
2022/06/06 04:27:37;;;;;;;4.55;2.10;;;17.50;99.90;;;17.94;85.17;100878.84;5211951;28;20514;-84
2022/06/06 04:30:19;;;;;;;3.00;1.67;;;17.60;99.90;;;18.04;85.19;100884.16;5211597;28;20067;-83
2022/06/06 04:33:05;;;;;;;2.58;1.55;;;17.70;99.90;;;18.16;85.05;100881.59;5274481;23;20049;-67
2022/06/06 04:35:49;;;;;;;3.63;2.00;;;17.80;99.90;;;18.30;84.56;100875.50;5178269;28;20046;-68
2022/06/06 04:38:31;;;;;;;4.15;2.10;;;17.90;99.90;;;18.46;84.16;100877.34;5193669;28;20375;-66
2022/06/06 04:41:17;;;;;;;4.47;2.35;;;18.00;99.90;;;18.63;83.54;100877.41;5195578;28;20416;-67
2022/06/06 04:43:55;;;;;;;5.50;2.20;;;18.20;99.90;;;18.76;82.70;100875.72;5206690;28;20132;-67
2022/06/06 04:46:36;;;;;;;3.67;1.92;;;18.30;99.90;;;18.90;82.35;100884.53;5206397;28;20485;-69
2022/06/06 04:49:10;;;;;;;3.38;1.83;;;18.40;99.90;;;19.03;81.68;100894.25;5194540;28;20494;-67
2022/06/06 04:51:45;;;;;;;5.18;2.20;;;18.50;99.90;;;19.13;81.13;100893.41;5200223;28;20091;-68
2022/06/06 04:54:21;;;;;;;4.68;2.00;;;18.70;99.90;;;19.17;80.00;100892.53;5206201;28;20226;-67
2022/06/06 04:56:56;;;;;;;3.88;2.40;;;18.70;99.90;;;19.11;79.86;100895.16;5206122;28;20409;-68
2022/06/06 04:59:30;;;;;;;3.63;2.08;;;18.70;99.90;;;19.05;79.77;100910.13;5205999;28;20390;-69
2022/06/06 05:02:04;;;;;;;4.15;2.25;;;18.60;99.90;;;18.98;80.14;100919.81;5206063;28;20145;-67
2022/06/06 05:04:36;;;;;;;4.90;2.17;;;18.60;99.90;;;18.92;80.38;100919.78;5205865;28;20056;-66
2022/06/06 05:07:30;;;;;;;4.93;2.67;;;18.60;99.90;;;18.93;80.53;100913.63;5205864;28;20088;-67
2022/06/06 05:10:21;;;;;;;4.40;2.40;;;18.60;99.90;;;19.07;80.87;100914.53;5205475;28;20056;-66
2022/06/06 05:13:29;;;;;;;4.93;2.35;;;18.60;99.90;;;19.29;80.62;100922.47;5206171;28;20049;-67
2022/06/06 05:16:16;;;;;;;4.75;2.15;;;18.80;99.90;;;19.57;79.63;100924.28;5175140;28;20053;-66
2022/06/06 05:19:35;;;;;;;5.63;2.58;;;19.00;99.90;;;19.82;77.10;100925.16;5205336;28;20049;-66
2022/06/06 05:22:40;;;;;;;3.88;1.92;;;19.20;99.90;;;19.78;75.97;100937.50;5191152;28;20490;-67
2022/06/06 05:25:42;;;;;;;5.80;2.28;;;19.20;99.90;;;19.99;75.91;100946.31;5204349;28;20079;-66
2022/06/06 05:28:45;;;;;;;4.38;2.05;;;19.30;99.90;;;21.67;70.99;100953.53;5205585;28;20053;-66
2022/06/06 05:31:32;;;;;;;5.10;2.63;;;20.20;99.90;;;23.46;63.67;100946.97;5205571;28;20457;-66
2022/06/06 05:34:12;;;;;;;4.93;2.42;;;21.50;99.90;;;25.01;56.00;100947.66;5205423;28;20140;-67
2022/06/06 05:37:08;;;;;;;4.40;2.13;;;22.80;98.90;;;25.75;52.61;100953.97;5205768;28;20050;-67
2022/06/06 05:39:57;;;;;;;6.25;2.30;;;23.80;96.20;;;25.42;52.73;100948.50;5204989;28;20057;-69
2022/06/06 05:42:49;;;;;;;3.35;2.22;;;23.90;94.30;;;24.81;53.58;100944.53;5205537;28;20136;-71
2022/06/06 05:45:35;;;;;;;4.10;1.90;;;23.70;93.80;;;24.24;54.97;100948.31;5206042;28;20049;-71
2022/06/06 05:48:23;;;;;;;3.65;2.08;;;23.30;94.00;;;23.82;56.72;100940.22;5194945;28;20054;-72
2022/06/06 05:51:14;;;;;;;4.15;2.03;;;23.00;94.70;;;23.56;57.79;100937.97;5185426;28;20501;-71
2022/06/06 05:54:05;;;;;;;4.07;2.35;;;22.70;95.20;;;23.73;58.16;100947.47;5185276;28;20487;-70
2022/06/06 05:57:31;;;;;;;4.93;2.20;;;22.70;95.80;;;24.74;53.75;100937.59;5185097;28;20045;-72
2022/06/06 06:00:21;;;;;;;3.67;2.00;;;23.20;94.70;;;25.48;51.67;100935.00;5184945;28;20049;-72
2022/06/06 06:03:39;;;;;;;6.22;3.08;;;23.70;93.30;;;27.98;45.57;100945.53;5185034;28;20498;-70
2022/06/06 06:06:22;;;;;;;5.40;2.10;;;25.30;91.10;;;30.21;40.17;100938.59;5189255;28;20487;-71
2022/06/06 06:09:17;;;;;;;2.85;1.70;;;27.30;81.80;;;32.07;36.14;100937.69;5188371;28;20053;-71
2022/06/06 06:12:10;;;;;;;2.92;1.70;;;28.90;74.40;;;33.58;32.74;100941.97;5189030;28;20054;-71
2022/06/06 06:14:57;;;;;;;2.97;1.90;;;30.40;66.60;;;34.50;30.93;100949.97;5188897;28;20068;-71
2022/06/06 06:17:33;;;;;;;2.25;1.30;;;31.50;61.80;;;35.23;29.25;100953.38;5188392;28;20406;-71
2022/06/06 06:20:10;;;;;;;2.05;1.33;;;32.30;58.60;;;35.57;28.69;100951.16;5185364;28;20084;-71
2022/06/06 06:22:49;;;;;;;1.92;1.25;;;32.70;56.90;;;36.02;28.21;100954.44;5188008;28;20057;-72
2022/06/06 06:25:22;;;;;;;2.63;1.30;;;33.10;56.20;;;36.59;27.07;100962.19;5188302;28;20133;-73
2022/06/06 06:28:00;;;;;;;1.92;1.10;;;33.60;54.60;;;36.83;26.07;100960.41;5189604;28;20048;-72
2022/06/06 06:30:45;;;;;;;2.70;1.20;;;34.00;52.80;;;36.99;25.32;100964.78;5208534;28;20132;-71
2022/06/06 06:33:40;;;;;;;1.23;1.10;;;34.10;51.90;;;36.97;25.16;100961.28;5208730;28;20425;-71
2022/06/06 06:36:30;;;;;;;2.00;1.10;;;34.20;50.80;;;37.04;25.26;100968.00;5208857;28;20077;-73
2022/06/06 06:39:22;;;;;;;1.73;1.00;;;34.20;50.70;;;37.44;24.07;100955.94;5189389;28;20046;-73
2022/06/06 06:42:17;;;;;;;1.20;0.90;;;34.60;49.70;;;37.44;23.53;100961.38;5186718;28;20050;-71
2022/06/06 06:44:55;;;;;;;2.90;1.23;;;34.60;48.80;;;36.79;24.28;100972.50;5188150;28;20417;-72
2022/06/06 06:47:32;;;;;;;0.85;0.85;;;34.20;48.70;;;35.41;25.49;100967.53;5188043;28;20103;-74
2022/06/06 06:50:12;;;;;;;1.80;1.10;;;33.20;49.10;;;35.14;26.64;100970.22;5188132;28;20129;-72
2022/06/06 06:53:05;;;;;;;1.73;0.82;;;32.70;51.00;;;35.81;25.53;100973.88;5187997;28;20053;-55
2022/06/06 06:55:47;;;;;;;1.73;0.80;;;33.00;50.10;;;35.75;24.72;100977.03;5187809;28;20073;-57
2022/06/06 06:58:37;;;;;;;1.65;0.70;;;33.00;49.50;;;35.14;24.03;100970.22;5188048;28;20060;-57
2022/06/06 07:01:16;;;;;;;0.73;0.50;;;32.70;47.90;;;35.55;23.31;100980.22;5187906;28;20046;-57
2022/06/06 07:10:14;;;;;;;1.70;0.70;;;33.60;46.80;;;36.59;22.66;100984.78;5187400;28;20073;-57
2022/06/06 07:13:24;;;;;;;1.90;0.70;;;33.50;46.60;;;36.92;22.00;100983.38;5187546;28;20050;-59
2022/06/06 07:16:05;;;;;;;1.83;0.63;;;33.70;46.20;;;37.33;21.63;100985.78;5183548;28;20414;-60
2022/06/06 07:18:38;;;;;;;2.45;0.90;;;33.90;46.10;;;37.66;21.14;100986.94;5181305;28;20052;-58
2022/06/06 07:21:13;;;;;;;1.02;0.70;;;34.20;45.60;;;38.09;20.80;100991.84;5187542;28;20042;-58
2022/06/06 07:23:48;;;;;;;1.30;0.75;;;34.50;45.30;;;38.55;20.66;100981.81;5187454;28;20446;-58
2022/06/06 07:26:21;;;;;;;1.02;0.70;;;34.80;45.40;;;39.02;20.02;100979.84;5187622;28;20160;-58
2022/06/06 07:28:53;;;;;;;1.65;0.68;;;35.20;44.70;;;39.19;19.35;100974.88;5186764;28;20137;-56
2022/06/06 07:31:44;;;;;;;0.52;0.50;;;35.40;43.70;;;39.02;20.84;100963.50;5187345;28;20072;-57
2022/06/06 07:34:41;;;;;;;1.13;0.60;;;35.20;45.60;;;39.41;19.84;100969.38;5186890;28;20069;-58
2022/06/06 07:37:33;;;;;;;1.08;0.73;;;35.30;45.00;;;39.72;19.32;100958.63;5187072;28;20052;-59
2022/06/06 07:40:19;;;;;;;0.95;0.73;;;35.50;44.10;;;39.88;19.13;100956.31;5186884;28;20072;-57
2022/06/06 07:43:13;;;;;;;1.13;0.50;;;35.70;44.00;;;39.87;19.30;100962.78;5187137;28;20046;-57
2022/06/06 07:45:48;;;;;;;0.73;0.60;;;35.70;44.00;;;37.87;20.49;100971.72;5186683;28;20060;-59
2022/06/06 07:48:46;;;;;;;0.73;0.65;;;34.90;43.70;;;34.92;22.81;100961.75;5180990;28;20392;-60
2022/06/06 07:51:30;;;;;;;0.68;0.60;;;33.30;45.40;;;32.81;25.32;100966.16;5191829;28;20042;-59
2022/06/06 07:54:17;;;;;;;0.73;0.50;;;31.50;46.40;;;31.46;27.04;100956.97;5199891;28;20056;-60
2022/06/06 07:56:58;;;;;;;1.20;0.60;;;30.30;47.90;;;30.57;28.46;100948.63;5184946;28;20046;-58
2022/06/06 07:59:48;;;;;;;0.70;0.70;;;29.30;49.30;;;29.74;30.00;100952.25;5182129;28;20390;-59
2022/06/06 08:02:45;;;;;;;1.20;0.68;;;28.50;50.70;;;29.48;30.69;100952.44;5186262;28;20483;-58
2022/06/06 08:05:53;;;;;;;1.23;0.70;;;28.00;51.80;;;29.29;31.24;100947.81;5186079;28;20053;-59
2022/06/06 08:08:44;;;;;;;1.85;0.70;;;27.70;52.40;;;29.27;31.45;100955.03;5181011;28;20048;-58
2022/06/06 08:11:23;;;;;;;1.73;0.63;;;27.50;53.10;;;29.49;30.49;100951.50;5186257;28;20046;-57
2022/06/06 08:14:10;;;;;;;0.50;0.50;;;27.40;52.70;;;29.61;30.65;100956.41;5203475;28;20056;-58
2022/06/06 08:16:48;;;;;;;1.17;0.70;;;27.40;52.80;;;29.53;30.81;100945.94;5206904;28;20053;-59
2022/06/06 08:19:41;;;;;;;1.27;0.60;;;27.30;52.70;;;29.19;31.13;100943.72;5196977;28;20412;-57
2022/06/06 08:22:14;;;;;;;0.70;0.68;;;27.20;53.20;;;28.87;31.48;100945.84;5185670;28;20042;-58
2022/06/06 08:24:49;;;;;;;1.33;0.47;;;27.10;53.40;;;28.60;32.05;100941.53;5183626;28;20433;-58
2022/06/06 08:27:21;;;;;;;2.13;0.60;;;26.80;53.80;;;28.32;32.30;100942.56;5189262;28;20049;-58
2022/06/06 08:29:53;;;;;;;1.50;0.70;;;26.60;53.80;;;28.09;33.01;100942.47;5151210;28;20574;-59
2022/06/06 08:32:29;;;;;;;0.40;0.40;;;26.50;54.30;;;28.02;33.96;100935.56;5176958;28;20049;-57
2022/06/06 08:35:01;;;;;;;0.60;0.50;;;26.30;56.40;;;28.46;33.76;100943.88;5183115;28;20053;-58
2022/06/06 08:38:13;;;;;;;1.13;0.70;;;26.40;55.90;;;29.00;32.41;100940.91;5186604;28;20081;-59
2022/06/06 08:41:34;;;;;;;1.35;0.60;;;26.70;55.20;;;30.05;30.81;100951.78;5182098;28;20125;-57
2022/06/06 08:44:26;;;;;;;1.17;0.65;;;27.30;54.40;;;30.07;30.35;100939.19;5183573;28;20061;-59
2022/06/06 08:47:10;;;;;;;1.05;0.40;;;27.60;53.40;;;29.46;30.83;100952.47;5203129;28;20049;-58
2022/06/06 08:53:57;;;;;;;1.05;0.70;;;27.40;54.00;;;28.70;31.38;100934.91;5206155;28;20087;-59
2022/06/06 08:56:59;;;;;;;0.60;0.60;;;27.10;53.10;;;28.06;32.42;100935.41;5187914;28;20057;-58
2022/06/06 09:00:07;;;;;;;1.58;0.50;;;26.60;53.70;;;28.08;32.66;100930.00;5205735;28;20053;-59
2022/06/06 09:03:39;;;;;;;1.73;0.70;;;26.50;54.30;;;28.02;33.08;100919.50;5206191;28;20045;-59
2022/06/06 09:07:10;;;;;;;0.50;0.50;;;26.40;54.60;;;28.40;33.37;100915.47;5205176;28;20505;-58
2022/06/06 09:10:38;;;;;;;1.02;0.52;;;26.50;55.40;;;28.31;32.98;100903.28;5202973;28;20065;-57
2022/06/06 09:13:55;;;;;;;0.65;0.60;;;26.50;54.80;;;29.50;31.30;100900.41;5175824;28;20465;-58
2022/06/06 09:17:19;;;;;;;1.00;0.50;;;27.00;54.40;;;31.06;29.25;100896.97;5164897;28;20065;-58
2022/06/06 09:20:32;;;;;;;1.63;0.50;;;27.80;53.30;;;32.33;27.79;100889.59;5169296;28;20062;-58
2022/06/06 09:23:58;;;;;;;1.10;0.68;;;28.90;52.40;;;33.18;26.16;100901.00;5182864;28;20064;-59
2022/06/06 09:26:40;;;;;;;0.50;0.40;;;29.80;50.40;;;33.47;25.86;100895.78;5164999;28;20050;-59
2022/06/06 09:29:59;;;;;;;0.82;0.40;;;30.30;49.70;;;33.42;25.71;100905.97;5185127;28;20133;-57
2022/06/06 09:33:23;;;;;;;0.40;0.40;;;30.70;49.00;;;32.78;26.31;100906.91;5182514;28;20046;-58
2022/06/06 09:36:23;;;;;;;0.65;0.52;;;30.70;48.70;;;31.81;27.28;100895.03;5185179;28;20145;-58
2022/06/06 09:39:08;;;;;;;0.90;0.68;;;30.20;49.00;;;31.12;28.31;100889.53;5199770;28;20093;-58
2022/06/06 09:41:52;;;;;;;0.68;0.60;;;29.80;49.90;;;30.52;28.98;100881.59;5189574;28;20146;-57
2022/06/06 09:44:57;;;;;;;0.85;0.50;;;29.30;50.10;;;29.99;29.93;100892.94;5187129;28;20104;-58
2022/06/06 09:48:26;;;;;;;0.55;0.50;;;29.00;50.90;;;29.46;30.55;100888.91;5182932;28;20050;-59
2022/06/06 09:51:52;;;;;;;0.77;0.47;;;28.50;51.20;;;28.99;31.30;100881.94;5183405;28;20046;-63
2022/06/06 10:02:09;;;;;;;0.47;0.47;;;27.00;53.80;;;27.01;36.35;100902.28;5165054;28;20538;-58
2022/06/06 10:05:48;;;;;;;0.90;0.70;;;26.40;56.30;;;26.38;39.97;100905.06;5168691;28;20137;-59
2022/06/06 10:08:59;;;;;;;1.17;0.52;;;25.80;59.90;;;25.51;44.18;100910.94;5102701;29;20051;-59
2022/06/06 10:12:36;;;;;;;1.98;0.65;;;25.10;63.30;;;24.56;47.13;100902.41;5085087;29;20048;-58
2022/06/06 10:15:47;;;;;;;1.63;0.68;;;24.30;66.30;;;23.77;50.17;100909.25;5168910;28;20137;-58
2022/06/06 10:18:45;;;;;;;1.45;0.60;;;23.50;68.90;;;23.37;52.62;100903.72;5168685;28;20046;-57
2022/06/06 10:21:36;;;;;;;2.25;0.98;;;23.00;72.10;;;23.14;54.47;100888.09;5168623;28;20050;-58
2022/06/06 10:24:30;;;;;;;2.55;0.80;;;22.80;73.30;;;22.91;55.77;100883.13;5188898;28;20058;-59
2022/06/06 10:27:15;;;;;;;1.20;0.60;;;22.50;75.50;;;22.77;56.77;100891.28;5209299;28;20049;-57
2022/06/06 10:30:13;;;;;;;1.77;0.60;;;22.30;76.10;;;22.65;57.45;100889.66;5198920;28;20049;-59
2022/06/06 10:33:20;;;;;;;1.33;0.82;;;22.20;77.50;;;22.54;59.52;100903.97;5186841;28;20141;-58
2022/06/06 10:36:11;;;;;;;1.52;0.82;;;22.10;80.00;;;22.52;60.85;100921.72;5185648;28;20554;-58
2022/06/06 10:39:03;;;;;;;1.17;0.80;;;22.00;82.80;;;22.50;62.00;100919.09;5183058;28;20046;-58
2022/06/06 10:42:09;;;;;;;0.75;0.70;;;22.00;85.60;;;22.45;62.30;100926.22;5187966;28;20053;-58
2022/06/06 10:45:18;;;;;;;0.98;0.77;;;21.90;88.00;;;22.35;62.98;100930.75;5184217;28;20080;-58
2022/06/06 10:48:18;;;;;;;1.77;0.60;;;21.80;90.40;;;22.32;62.23;100929.94;5187833;28;20137;-58
2022/06/06 10:51:47;;;;;;;1.63;0.73;;;21.80;91.00;;;22.25;60.68;100938.84;5257611;23;20045;-54
2022/06/06 10:55:09;;;;;;;1.10;0.82;;;21.70;90.80;;;22.06;60.49;100957.59;5208550;28;20140;-54
2022/06/06 10:58:22;;;;;;;0.88;0.80;;;21.60;91.00;;;21.84;60.92;100963.97;5208835;28;20072;-53
2022/06/06 11:01:44;;;;;;;1.48;0.85;;;21.40;91.50;;;21.76;62.59;100960.50;5208365;28;20131;-54
2022/06/06 11:05:00;;;;;;;1.75;0.70;;;21.30;93.00;;;21.74;62.06;100946.41;5193007;28;20056;-54
2022/06/06 11:08:17;;;;;;;3.42;1.10;;;21.30;93.40;;;21.78;62.36;100940.16;5208442;28;20049;-53
2022/06/06 11:11:27;;;;;;;11.82;3.55;;;21.30;93.90;;;21.83;62.36;100931.25;5208038;28;20045;-53
2022/06/06 11:14:05;;;;;;;29.52;5.10;;;21.30;94.30;;;21.80;61.54;100923.34;5207830;28;20056;-53
2022/06/06 11:17:27;;;;;;;14.18;3.92;;;21.30;94.00;;;21.76;61.78;100913.63;5208256;28;20045;-54
2022/06/06 11:20:40;;;;;;;18.50;5.57;;;21.30;94.20;;;21.88;62.46;100917.94;5207868;28;20053;-53
2022/06/06 11:23:20;;;;;;;10.57;4.00;;;21.30;94.90;;;21.99;62.01;100910.78;5183405;28;20053;-54
2022/06/06 11:26:20;;;;;;;4.43;1.77;;;21.50;94.90;;;22.03;61.85;100911.59;5208471;28;20045;-54
2022/06/06 11:29:26;;;;;;;4.55;1.50;;;21.50;95.00;;;22.18;62.03;100900.88;5208108;28;20054;-55
2022/06/06 11:32:30;;;;;;;2.10;1.00;;;21.60;95.30;;;22.36;61.08;100895.31;5207834;28;20131;-54
2022/06/06 11:35:27;;;;;;;1.63;0.90;;;21.70;95.10;;;22.49;60.00;100885.44;5208287;28;20050;-54
2022/06/06 11:38:53;;;;;;;0.50;0.50;;;21.80;94.60;;;22.63;59.26;100893.25;5208062;28;20059;-54
2022/06/06 11:42:14;;;;;;;0.70;0.70;;;21.90;94.00;;;23.01;60.80;100890.06;5207941;28;20041;-55
2022/06/06 11:45:31;;;;;;;1.77;0.80;;;22.20;95.20;;;23.38;59.84;100887.72;5205074;28;20163;-53
2022/06/06 11:48:31;;;;;;;1.45;0.75;;;22.50;95.10;;;23.67;59.60;100886.34;5207520;28;20132;-54
2022/06/06 11:51:37;;;;;;;;;;;22.80;94.80;;;23.83;56.86;100886.06;5207865;28;20414;-54
2022/06/06 11:55:10;;;;;;;0.95;0.50;;;23.00;93.50;;;23.93;52.97;100881.47;5207832;28;20008;-54
2022/06/06 11:58:24;;;;;;;2.67;0.50;;;23.20;90.90;;;23.92;51.71;100886.81;5207345;28;20058;-54
2022/06/06 12:01:38;;;;;;;0.82;0.40;;;23.20;88.20;;;24.05;52.49;100883.88;5204250;28;20053;-54
2022/06/06 12:05:19;;;;;;;0.40;0.40;;;23.40;88.20;;;24.17;50.65;100876.56;5204846;28;20064;-53